sensor_id;sensor_type;location;lat;lon;timestamp;temperature;humidity
20288;DHT22;10303;51.960;8.372;2024-03-02T00:01:15;10.50;99.90
20288;DHT22;10303;51.960;8.372;2024-03-02T00:03:42;10.40;99.90
20288;DHT22;10303;51.960;8.372;2024-03-02T00:06:09;10.40;99.90
20288;DHT22;10303;51.960;8.372;2024-03-02T00:08:35;10.40;99.90
20288;DHT22;10303;51.960;8.372;2024-03-02T00:11:01;10.40;99.90
20288;DHT22;10303;51.960;8.372;2024-03-02T00:13:29;10.30;99.90
20288;DHT22;10303;51.960;8.372;2024-03-02T00:15:57;10.30;99.90
20288;DHT22;10303;51.960;8.372;2024-03-02T00:18:34;10.30;99.90
20288;DHT22;10303;51.960;8.372;2024-03-02T00:21:01;10.30;99.90
20288;DHT22;10303;51.960;8.372;2024-03-02T00:23:32;10.30;99.90
20288;DHT22;10303;51.960;8.372;2024-03-02T00:26:01;10.30;99.90
20288;DHT22;10303;51.960;8.372;2024-03-02T00:28:31;10.30;99.90
20288;DHT22;10303;51.960;8.372;2024-03-02T00:31:07;10.20;99.90
20288;DHT22;10303;51.960;8.372;2024-03-02T00:33:35;10.20;99.90
20288;DHT22;10303;51.960;8.372;2024-03-02T00:36:04;10.20;99.90
20288;DHT22;10303;51.960;8.372;2024-03-02T00:38:31;10.20;99.90
20288;DHT22;10303;51.960;8.372;2024-03-02T00:41:03;10.20;99.90
20288;DHT22;10303;51.960;8.372;2024-03-02T00:46:23;10.20;99.90
20288;DHT22;10303;51.960;8.372;2024-03-02T00:48:55;10.20;99.90
20288;DHT22;10303;51.960;8.372;2024-03-02T00:51:24;10.10;99.90
20288;DHT22;10303;51.960;8.372;2024-03-02T00:53:57;10.10;99.90
20288;DHT22;10303;51.960;8.372;2024-03-02T00:56:25;10.10;99.90
20288;DHT22;10303;51.960;8.372;2024-03-02T00:58:52;10.10;99.90
20288;DHT22;10303;51.960;8.372;2024-03-02T01:01:18;10.10;99.90
20288;DHT22;10303;51.960;8.372;2024-03-02T01:03:48;10.10;99.90
20288;DHT22;10303;51.960;8.372;2024-03-02T01:06:16;10.10;99.90
20288;DHT22;10303;51.960;8.372;2024-03-02T01:08:42;10.10;99.90
20288;DHT22;10303;51.960;8.372;2024-03-02T01:11:09;10.10;99.90
20288;DHT22;10303;51.960;8.372;2024-03-02T01:13:35;10.10;99.90
20288;DHT22;10303;51.960;8.372;2024-03-02T01:16:02;10.10;99.90
20288;DHT22;10303;51.960;8.372;2024-03-02T01:18:28;10.10;99.90
20288;DHT22;10303;51.960;8.372;2024-03-02T01:20:54;10.10;99.90
20288;DHT22;10303;51.960;8.372;2024-03-02T01:23:23;10.00;99.90
20288;DHT22;10303;51.960;8.372;2024-03-02T01:25:50;10.10;99.90
20288;DHT22;10303;51.960;8.372;2024-03-02T01:28:18;10.10;99.90
20288;DHT22;10303;51.960;8.372;2024-03-02T01:30:44;10.00;99.90
20288;DHT22;10303;51.960;8.372;2024-03-02T01:33:11;10.00;99.90
20288;DHT22;10303;51.960;8.372;2024-03-02T01:35:37;10.00;99.90
20288;DHT22;10303;51.960;8.372;2024-03-02T01:38:03;10.10;99.90
20288;DHT22;10303;51.960;8.372;2024-03-02T01:40:34;10.10;99.90
20288;DHT22;10303;51.960;8.372;2024-03-02T01:43:00;10.10;99.90
20288;DHT22;10303;51.960;8.372;2024-03-02T01:45:28;10.10;99.90
20288;DHT22;10303;51.960;8.372;2024-03-02T01:47:54;10.10;99.90
20288;DHT22;10303;51.960;8.372;2024-03-02T01:50:31;10.10;99.90
20288;DHT22;10303;51.960;8.372;2024-03-02T01:52:59;10.10;99.90
20288;DHT22;10303;51.960;8.372;2024-03-02T01:55:26;10.10;99.90
20288;DHT22;10303;51.960;8.372;2024-03-02T01:57:53;10.10;99.90
20288;DHT22;10303;51.960;8.372;2024-03-02T02:00:20;10.10;99.90
20288;DHT22;10303;51.960;8.372;2024-03-02T02:02:49;10.00;99.90
20288;DHT22;10303;51.960;8.372;2024-03-02T02:05:17;10.00;99.90
20288;DHT22;10303;51.960;8.372;2024-03-02T02:07:43;10.10;99.90
20288;DHT22;10303;51.960;8.372;2024-03-02T02:10:13;10.00;99.90
20288;DHT22;10303;51.960;8.372;2024-03-02T02:12:39;10.00;99.90
20288;DHT22;10303;51.960;8.372;2024-03-02T02:15:22;10.00;99.90
20288;DHT22;10303;51.960;8.372;2024-03-02T02:17:52;10.00;99.90
20288;DHT22;10303;51.960;8.372;2024-03-02T02:20:19;10.10;99.90
20288;DHT22;10303;51.960;8.372;2024-03-02T02:22:55;10.00;99.90
20288;DHT22;10303;51.960;8.372;2024-03-02T02:25:25;10.10;99.90
20288;DHT22;10303;51.960;8.372;2024-03-02T02:27:51;10.10;99.90
20288;DHT22;10303;51.960;8.372;2024-03-02T02:30:26;10.10;99.90
20288;DHT22;10303;51.960;8.372;2024-03-02T02:32:53;10.10;99.90
20288;DHT22;10303;51.960;8.372;2024-03-02T02:35:19;10.10;99.90
20288;DHT22;10303;51.960;8.372;2024-03-02T02:37:46;10.10;99.90
20288;DHT22;10303;51.960;8.372;2024-03-02T02:40:13;10.10;99.90
20288;DHT22;10303;51.960;8.372;2024-03-02T02:42:40;10.10;99.90
20288;DHT22;10303;51.960;8.372;2024-03-02T02:45:06;10.20;99.90
20288;DHT22;10303;51.960;8.372;2024-03-02T02:47:33;10.10;99.90
20288;DHT22;10303;51.960;8.372;2024-03-02T02:50:02;10.10;99.90
20288;DHT22;10303;51.960;8.372;2024-03-02T02:52:35;10.10;99.90
20288;DHT22;10303;51.960;8.372;2024-03-02T02:55:08;10.20;99.90
20288;DHT22;10303;51.960;8.372;2024-03-02T02:57:36;10.10;99.90
20288;DHT22;10303;51.960;8.372;2024-03-02T03:00:12;10.10;99.90
20288;DHT22;10303;51.960;8.372;2024-03-02T03:02:44;10.10;99.90
20288;DHT22;10303;51.960;8.372;2024-03-02T03:05:13;10.10;99.90
20288;DHT22;10303;51.960;8.372;2024-03-02T03:07:40;10.10;99.90
20288;DHT22;10303;51.960;8.372;2024-03-02T03:10:07;10.10;99.90
20288;DHT22;10303;51.960;8.372;2024-03-02T03:12:34;10.10;99.90
20288;DHT22;10303;51.960;8.372;2024-03-02T03:15:01;10.10;99.90
20288;DHT22;10303;51.960;8.372;2024-03-02T03:17:30;10.10;99.90
20288;DHT22;10303;51.960;8.372;2024-03-02T03:19:56;10.10;99.90
20288;DHT22;10303;51.960;8.372;2024-03-02T03:22:21;10.10;99.90
20288;DHT22;10303;51.960;8.372;2024-03-02T03:24:48;10.10;99.90
20288;DHT22;10303;51.960;8.372;2024-03-02T03:27:13;10.10;99.90
20288;DHT22;10303;51.960;8.372;2024-03-02T03:29:40;10.10;99.90
20288;DHT22;10303;51.960;8.372;2024-03-02T03:32:06;10.10;99.90
20288;DHT22;10303;51.960;8.372;2024-03-02T03:34:33;10.00;99.90
20288;DHT22;10303;51.960;8.372;2024-03-02T03:37:00;10.10;99.90
20288;DHT22;10303;51.960;8.372;2024-03-02T03:39:26;10.10;99.90
20288;DHT22;10303;51.960;8.372;2024-03-02T03:41:52;10.00;99.90
20288;DHT22;10303;51.960;8.372;2024-03-02T03:44:17;10.10;99.90
20288;DHT22;10303;51.960;8.372;2024-03-02T03:46:44;10.00;99.90
20288;DHT22;10303;51.960;8.372;2024-03-02T03:49:10;10.00;99.90
20288;DHT22;10303;51.960;8.372;2024-03-02T03:51:36;10.00;99.90
20288;DHT22;10303;51.960;8.372;2024-03-02T03:54:02;10.10;99.90
20288;DHT22;10303;51.960;8.372;2024-03-02T03:56:28;10.10;99.90
20288;DHT22;10303;51.960;8.372;2024-03-02T03:58:54;10.00;99.90
20288;DHT22;10303;51.960;8.372;2024-03-02T04:01:20;10.10;99.90
20288;DHT22;10303;51.960;8.372;2024-03-02T04:03:48;10.00;99.90
20288;DHT22;10303;51.960;8.372;2024-03-02T04:06:14;10.00;99.90
20288;DHT22;10303;51.960;8.372;2024-03-02T04:08:42;10.00;99.90
20288;DHT22;10303;51.960;8.372;2024-03-02T04:11:08;10.10;99.90
20288;DHT22;10303;51.960;8.372;2024-03-02T04:13:33;10.00;99.90
20288;DHT22;10303;51.960;8.372;2024-03-02T04:15:59;10.00;99.90
20288;DHT22;10303;51.960;8.372;2024-03-02T04:18:25;10.00;99.90
20288;DHT22;10303;51.960;8.372;2024-03-02T04:20:51;10.00;99.90
20288;DHT22;10303;51.960;8.372;2024-03-02T04:23:17;9.90;99.90
20288;DHT22;10303;51.960;8.372;2024-03-02T04:25:43;9.90;99.90
20288;DHT22;10303;51.960;8.372;2024-03-02T04:28:09;9.90;99.90
20288;DHT22;10303;51.960;8.372;2024-03-02T04:30:35;9.90;99.90
20288;DHT22;10303;51.960;8.372;2024-03-02T04:33:01;9.90;99.90
20288;DHT22;10303;51.960;8.372;2024-03-02T04:35:28;9.90;99.90
20288;DHT22;10303;51.960;8.372;2024-03-02T04:37:54;9.90;99.90
20288;DHT22;10303;51.960;8.372;2024-03-02T04:40:20;9.90;99.90
20288;DHT22;10303;51.960;8.372;2024-03-02T04:42:46;9.90;99.90
20288;DHT22;10303;51.960;8.372;2024-03-02T04:45:12;9.90;99.90
20288;DHT22;10303;51.960;8.372;2024-03-02T04:47:37;9.90;99.90
20288;DHT22;10303;51.960;8.372;2024-03-02T04:50:04;9.90;99.90
20288;DHT22;10303;51.960;8.372;2024-03-02T04:52:31;9.90;99.90
20288;DHT22;10303;51.960;8.372;2024-03-02T04:54:57;9.90;99.90
20288;DHT22;10303;51.960;8.372;2024-03-02T04:57:41;9.90;99.90
20288;DHT22;10303;51.960;8.372;2024-03-02T05:00:07;9.90;99.90
20288;DHT22;10303;51.960;8.372;2024-03-02T05:02:34;9.90;99.90
20288;DHT22;10303;51.960;8.372;2024-03-02T05:05:01;9.90;99.90
20288;DHT22;10303;51.960;8.372;2024-03-02T05:07:28;9.90;99.90
20288;DHT22;10303;51.960;8.372;2024-03-02T05:09:54;9.80;99.90
20288;DHT22;10303;51.960;8.372;2024-03-02T05:12:19;9.90;99.90
20288;DHT22;10303;51.960;8.372;2024-03-02T05:15:04;9.90;99.90
20288;DHT22;10303;51.960;8.372;2024-03-02T05:17:30;9.90;99.90
20288;DHT22;10303;51.960;8.372;2024-03-02T05:19:56;9.80;99.90
20288;DHT22;10303;51.960;8.372;2024-03-02T05:22:22;9.80;99.90
20288;DHT22;10303;51.960;8.372;2024-03-02T05:24:48;9.80;99.90
20288;DHT22;10303;51.960;8.372;2024-03-02T05:27:14;9.80;99.90
20288;DHT22;10303;51.960;8.372;2024-03-02T05:29:40;9.80;99.90
20288;DHT22;10303;51.960;8.372;2024-03-02T05:32:06;9.80;99.90
20288;DHT22;10303;51.960;8.372;2024-03-02T05:34:32;9.80;99.90
20288;DHT22;10303;51.960;8.372;2024-03-02T05:37:01;9.80;99.90
20288;DHT22;10303;51.960;8.372;2024-03-02T05:39:27;9.80;99.90
20288;DHT22;10303;51.960;8.372;2024-03-02T05:41:53;9.80;99.90
20288;DHT22;10303;51.960;8.372;2024-03-02T05:44:19;9.80;99.90
20288;DHT22;10303;51.960;8.372;2024-03-02T05:46:45;9.80;99.90
20288;DHT22;10303;51.960;8.372;2024-03-02T05:49:11;9.80;99.90
20288;DHT22;10303;51.960;8.372;2024-03-02T05:51:37;9.80;99.90
20288;DHT22;10303;51.960;8.372;2024-03-02T05:54:03;9.90;99.90
20288;DHT22;10303;51.960;8.372;2024-03-02T05:56:29;9.80;99.90
20288;DHT22;10303;51.960;8.372;2024-03-02T05:58:55;9.90;99.90
20288;DHT22;10303;51.960;8.372;2024-03-02T06:01:43;9.90;99.90
20288;DHT22;10303;51.960;8.372;2024-03-02T06:04:10;9.90;99.90
20288;DHT22;10303;51.960;8.372;2024-03-02T06:06:37;9.80;99.90
20288;DHT22;10303;51.960;8.372;2024-03-02T06:09:04;9.80;99.90
20288;DHT22;10303;51.960;8.372;2024-03-02T06:11:34;9.80;99.90
20288;DHT22;10303;51.960;8.372;2024-03-02T06:14:04;9.80;99.90
20288;DHT22;10303;51.960;8.372;2024-03-02T06:16:30;9.80;99.90
20288;DHT22;10303;51.960;8.372;2024-03-02T06:18:57;9.80;99.90
20288;DHT22;10303;51.960;8.372;2024-03-02T06:21:27;9.90;99.90
20288;DHT22;10303;51.960;8.372;2024-03-02T06:23:53;9.90;99.90
20288;DHT22;10303;51.960;8.372;2024-03-02T06:26:20;9.90;99.90
20288;DHT22;10303;51.960;8.372;2024-03-02T06:28:46;9.80;99.90
20288;DHT22;10303;51.960;8.372;2024-03-02T06:31:12;9.80;99.90
20288;DHT22;10303;51.960;8.372;2024-03-02T06:33:38;9.80;99.90
20288;DHT22;10303;51.960;8.372;2024-03-02T06:36:05;9.80;99.90
20288;DHT22;10303;51.960;8.372;2024-03-02T06:38:35;9.90;99.90
20288;DHT22;10303;51.960;8.372;2024-03-02T06:41:01;9.90;99.90
20288;DHT22;10303;51.960;8.372;2024-03-02T06:43:27;9.90;99.90
20288;DHT22;10303;51.960;8.372;2024-03-02T06:45:53;9.90;99.90
20288;DHT22;10303;51.960;8.372;2024-03-02T06:48:19;10.00;99.90
20288;DHT22;10303;51.960;8.372;2024-03-02T06:50:49;10.00;99.90
20288;DHT22;10303;51.960;8.372;2024-03-02T06:53:16;9.90;99.90
20288;DHT22;10303;51.960;8.372;2024-03-02T06:55:43;10.00;99.90
20288;DHT22;10303;51.960;8.372;2024-03-02T06:58:13;9.90;99.90
20288;DHT22;10303;51.960;8.372;2024-03-02T07:00:43;10.00;99.90
20288;DHT22;10303;51.960;8.372;2024-03-02T07:03:13;10.00;99.90
20288;DHT22;10303;51.960;8.372;2024-03-02T07:05:39;10.00;99.90
20288;DHT22;10303;51.960;8.372;2024-03-02T07:08:05;10.00;99.90
20288;DHT22;10303;51.960;8.372;2024-03-02T07:10:31;9.90;99.90
20288;DHT22;10303;51.960;8.372;2024-03-02T07:12:57;9.90;99.90
20288;DHT22;10303;51.960;8.372;2024-03-02T07:15:23;10.00;99.90
20288;DHT22;10303;51.960;8.372;2024-03-02T07:17:52;10.00;99.90
20288;DHT22;10303;51.960;8.372;2024-03-02T07:20:18;10.00;99.90
20288;DHT22;10303;51.960;8.372;2024-03-02T07:22:44;10.00;99.90
20288;DHT22;10303;51.960;8.372;2024-03-02T07:25:10;9.90;99.90
20288;DHT22;10303;51.960;8.372;2024-03-02T07:27:36;10.00;99.90
20288;DHT22;10303;51.960;8.372;2024-03-02T07:30:03;10.00;99.90
20288;DHT22;10303;51.960;8.372;2024-03-02T07:32:29;10.00;99.90
20288;DHT22;10303;51.960;8.372;2024-03-02T07:34:55;10.10;99.90
20288;DHT22;10303;51.960;8.372;2024-03-02T07:37:24;10.10;99.90
20288;DHT22;10303;51.960;8.372;2024-03-02T07:39:50;10.10;99.90
20288;DHT22;10303;51.960;8.372;2024-03-02T07:42:17;10.20;99.90
20288;DHT22;10303;51.960;8.372;2024-03-02T07:44:46;10.20;99.90
20288;DHT22;10303;51.960;8.372;2024-03-02T07:47:12;10.20;99.90
20288;DHT22;10303;51.960;8.372;2024-03-02T07:49:38;10.20;99.90
20288;DHT22;10303;51.960;8.372;2024-03-02T07:52:04;10.30;99.90
20288;DHT22;10303;51.960;8.372;2024-03-02T07:54:30;10.30;99.90
20288;DHT22;10303;51.960;8.372;2024-03-02T07:56:56;10.40;99.90
20288;DHT22;10303;51.960;8.372;2024-03-02T07:59:23;10.50;99.90
20288;DHT22;10303;51.960;8.372;2024-03-02T08:01:49;10.50;99.90
20288;DHT22;10303;51.960;8.372;2024-03-02T08:04:20;10.50;99.90
20288;DHT22;10303;51.960;8.372;2024-03-02T08:06:46;10.50;99.90
20288;DHT22;10303;51.960;8.372;2024-03-02T08:09:13;10.60;99.90
20288;DHT22;10303;51.960;8.372;2024-03-02T08:11:39;10.60;99.90
20288;DHT22;10303;51.960;8.372;2024-03-02T08:14:05;10.70;99.90
20288;DHT22;10303;51.960;8.372;2024-03-02T08:16:31;10.80;99.90
20288;DHT22;10303;51.960;8.372;2024-03-02T08:18:58;10.80;99.90
20288;DHT22;10303;51.960;8.372;2024-03-02T08:21:25;10.90;99.90
20288;DHT22;10303;51.960;8.372;2024-03-02T08:23:51;10.90;99.90
20288;DHT22;10303;51.960;8.372;2024-03-02T08:26:17;10.90;99.90
20288;DHT22;10303;51.960;8.372;2024-03-02T08:28:43;11.00;99.90
20288;DHT22;10303;51.960;8.372;2024-03-02T08:31:09;11.10;99.90
20288;DHT22;10303;51.960;8.372;2024-03-02T08:33:35;11.10;99.90
20288;DHT22;10303;51.960;8.372;2024-03-02T08:36:01;11.10;99.90
20288;DHT22;10303;51.960;8.372;2024-03-02T08:38:28;11.20;99.90
20288;DHT22;10303;51.960;8.372;2024-03-02T08:40:54;11.30;99.90
20288;DHT22;10303;51.960;8.372;2024-03-02T08:43:21;11.40;99.90
20288;DHT22;10303;51.960;8.372;2024-03-02T08:45:48;11.50;99.90
20288;DHT22;10303;51.960;8.372;2024-03-02T08:48:14;11.60;99.90
20288;DHT22;10303;51.960;8.372;2024-03-02T08:50:40;11.60;99.90
20288;DHT22;10303;51.960;8.372;2024-03-02T08:53:06;11.70;99.90
20288;DHT22;10303;51.960;8.372;2024-03-02T08:55:32;11.80;99.90
20288;DHT22;10303;51.960;8.372;2024-03-02T08:57:58;11.90;99.90
20288;DHT22;10303;51.960;8.372;2024-03-02T09:00:25;12.00;99.90
20288;DHT22;10303;51.960;8.372;2024-03-02T09:02:51;12.10;99.90
20288;DHT22;10303;51.960;8.372;2024-03-02T09:05:17;12.20;99.90
20288;DHT22;10303;51.960;8.372;2024-03-02T09:07:43;12.40;99.90
20288;DHT22;10303;51.960;8.372;2024-03-02T09:10:09;12.50;99.90
20288;DHT22;10303;51.960;8.372;2024-03-02T09:12:35;12.60;99.90
20288;DHT22;10303;51.960;8.372;2024-03-02T09:15:03;12.80;99.90
20288;DHT22;10303;51.960;8.372;2024-03-02T09:17:30;13.00;99.90
20288;DHT22;10303;51.960;8.372;2024-03-02T09:19:56;13.20;99.90
20288;DHT22;10303;51.960;8.372;2024-03-02T09:22:22;13.40;99.90
20288;DHT22;10303;51.960;8.372;2024-03-02T09:24:48;13.70;99.90
20288;DHT22;10303;51.960;8.372;2024-03-02T09:27:14;13.90;99.90
20288;DHT22;10303;51.960;8.372;2024-03-02T09:29:40;14.10;99.90
20288;DHT22;10303;51.960;8.372;2024-03-02T09:32:08;14.40;99.90
20288;DHT22;10303;51.960;8.372;2024-03-02T09:34:37;14.60;99.90
20288;DHT22;10303;51.960;8.372;2024-03-02T09:37:03;14.90;99.90
20288;DHT22;10303;51.960;8.372;2024-03-02T09:39:30;15.10;99.90
20288;DHT22;10303;51.960;8.372;2024-03-02T09:41:57;15.40;99.90
20288;DHT22;10303;51.960;8.372;2024-03-02T09:44:29;15.50;99.90
20288;DHT22;10303;51.960;8.372;2024-03-02T09:46:55;15.80;99.90
20288;DHT22;10303;51.960;8.372;2024-03-02T09:49:22;15.90;99.90
20288;DHT22;10303;51.960;8.372;2024-03-02T09:51:48;16.10;99.90
20288;DHT22;10303;51.960;8.372;2024-03-02T09:54:16;16.30;99.90
20288;DHT22;10303;51.960;8.372;2024-03-02T09:56:42;16.50;99.90
20288;DHT22;10303;51.960;8.372;2024-03-02T09:59:09;16.80;99.90
20288;DHT22;10303;51.960;8.372;2024-03-02T10:01:35;17.00;99.90
20288;DHT22;10303;51.960;8.372;2024-03-02T10:04:02;17.10;99.90
20288;DHT22;10303;51.960;8.372;2024-03-02T10:06:28;17.40;99.90
20288;DHT22;10303;51.960;8.372;2024-03-02T10:08:55;17.60;99.90
20288;DHT22;10303;51.960;8.372;2024-03-02T10:11:32;17.80;99.90
20288;DHT22;10303;51.960;8.372;2024-03-02T10:14:11;17.90;99.90
20288;DHT22;10303;51.960;8.372;2024-03-02T10:16:43;18.00;99.90
20288;DHT22;10303;51.960;8.372;2024-03-02T10:19:16;18.20;99.90
20288;DHT22;10303;51.960;8.372;2024-03-02T10:21:51;18.30;99.90
20288;DHT22;10303;51.960;8.372;2024-03-02T10:24:19;18.50;99.90
20288;DHT22;10303;51.960;8.372;2024-03-02T10:26:47;18.50;99.90
20288;DHT22;10303;51.960;8.372;2024-03-02T10:29:13;18.70;99.90
20288;DHT22;10303;51.960;8.372;2024-03-02T10:31:41;18.70;99.90
20288;DHT22;10303;51.960;8.372;2024-03-02T10:34:10;18.90;99.90
20288;DHT22;10303;51.960;8.372;2024-03-02T10:36:41;19.00;99.90
20288;DHT22;10303;51.960;8.372;2024-03-02T10:39:09;19.10;99.90
20288;DHT22;10303;51.960;8.372;2024-03-02T10:41:37;19.30;99.90
20288;DHT22;10303;51.960;8.372;2024-03-02T10:44:06;19.40;99.90
20288;DHT22;10303;51.960;8.372;2024-03-02T10:46:35;19.60;99.90
20288;DHT22;10303;51.960;8.372;2024-03-02T10:49:03;19.80;99.90
20288;DHT22;10303;51.960;8.372;2024-03-02T10:51:32;20.00;99.90
20288;DHT22;10303;51.960;8.372;2024-03-02T10:54:00;20.10;99.90
20288;DHT22;10303;51.960;8.372;2024-03-02T10:56:40;20.20;99.90
20288;DHT22;10303;51.960;8.372;2024-03-02T10:59:28;20.30;99.90
20288;DHT22;10303;51.960;8.372;2024-03-02T11:01:58;20.40;99.90
20288;DHT22;10303;51.960;8.372;2024-03-02T11:04:27;20.60;99.90
20288;DHT22;10303;51.960;8.372;2024-03-02T11:07:00;20.70;99.90
20288;DHT22;10303;51.960;8.372;2024-03-02T11:09:30;20.70;99.90
20288;DHT22;10303;51.960;8.372;2024-03-02T11:12:06;20.90;99.90
20288;DHT22;10303;51.960;8.372;2024-03-02T11:14:41;20.90;99.90
20288;DHT22;10303;51.960;8.372;2024-03-02T11:17:11;21.10;99.90
20288;DHT22;10303;51.960;8.372;2024-03-02T11:19:41;21.20;99.90
20288;DHT22;10303;51.960;8.372;2024-03-02T11:22:08;21.30;99.90
20288;DHT22;10303;51.960;8.372;2024-03-02T11:24:35;21.40;99.90
20288;DHT22;10303;51.960;8.372;2024-03-02T11:27:06;21.60;99.90
20288;DHT22;10303;51.960;8.372;2024-03-02T11:32:16;21.70;99.90
20288;DHT22;10303;51.960;8.372;2024-03-02T11:34:46;21.80;99.70
20288;DHT22;10303;51.960;8.372;2024-03-02T11:37:16;21.90;99.90
20288;DHT22;10303;51.960;8.372;2024-03-02T11:39:45;21.90;99.90
20288;DHT22;10303;51.960;8.372;2024-03-02T11:42:12;22.00;99.60
20288;DHT22;10303;51.960;8.372;2024-03-02T11:44:47;22.00;99.90
20288;DHT22;10303;51.960;8.372;2024-03-02T11:47:16;22.10;99.90
20288;DHT22;10303;51.960;8.372;2024-03-02T11:49:50;22.20;99.90
20288;DHT22;10303;51.960;8.372;2024-03-02T11:52:20;22.20;99.40
20288;DHT22;10303;51.960;8.372;2024-03-02T11:54:48;22.40;99.90
20288;DHT22;10303;51.960;8.372;2024-03-02T11:57:19;22.50;99.90
20288;DHT22;10303;51.960;8.372;2024-03-02T11:59:48;22.60;99.90
20288;DHT22;10303;51.960;8.372;2024-03-02T12:02:17;22.60;98.60
20288;DHT22;10303;51.960;8.372;2024-03-02T12:04:45;22.70;97.90
20288;DHT22;10303;51.960;8.372;2024-03-02T12:07:12;22.80;99.00
20288;DHT22;10303;51.960;8.372;2024-03-02T12:09:38;22.90;99.90
20288;DHT22;10303;51.960;8.372;2024-03-02T12:12:09;23.00;99.90
20288;DHT22;10303;51.960;8.372;2024-03-02T12:14:37;23.10;99.60
20288;DHT22;10303;51.960;8.372;2024-03-02T12:17:04;23.20;98.70
20288;DHT22;10303;51.960;8.372;2024-03-02T12:19:32;23.30;99.50
20288;DHT22;10303;51.960;8.372;2024-03-02T12:22:02;23.50;98.00
20288;DHT22;10303;51.960;8.372;2024-03-02T12:24:29;23.60;98.60
20288;DHT22;10303;51.960;8.372;2024-03-02T12:26:55;23.80;96.50
20288;DHT22;10303;51.960;8.372;2024-03-02T12:29:23;23.80;94.00
20288;DHT22;10303;51.960;8.372;2024-03-02T12:31:51;23.90;95.00
20288;DHT22;10303;51.960;8.372;2024-03-02T12:34:21;23.90;94.10
20288;DHT22;10303;51.960;8.372;2024-03-02T12:36:49;24.00;94.20
20288;DHT22;10303;51.960;8.372;2024-03-02T12:39:19;24.00;93.40
20288;DHT22;10303;51.960;8.372;2024-03-02T12:41:49;24.10;93.70
20288;DHT22;10303;51.960;8.372;2024-03-02T12:44:19;24.10;90.10
20288;DHT22;10303;51.960;8.372;2024-03-02T12:46:46;24.10;91.70
20288;DHT22;10303;51.960;8.372;2024-03-02T12:49:14;24.10;91.00
20288;DHT22;10303;51.960;8.372;2024-03-02T12:51:46;24.10;90.60
20288;DHT22;10303;51.960;8.372;2024-03-02T12:54:17;24.20;91.10
20288;DHT22;10303;51.960;8.372;2024-03-02T12:56:43;24.10;90.00
20288;DHT22;10303;51.960;8.372;2024-03-02T12:59:18;24.00;89.30
20288;DHT22;10303;51.960;8.372;2024-03-02T13:01:54;24.00;88.70
20288;DHT22;10303;51.960;8.372;2024-03-02T13:04:27;24.00;90.20
20288;DHT22;10303;51.960;8.372;2024-03-02T13:06:55;24.00;90.30
20288;DHT22;10303;51.960;8.372;2024-03-02T13:09:23;23.90;90.00
20288;DHT22;10303;51.960;8.372;2024-03-02T13:11:49;23.90;90.80
20288;DHT22;10303;51.960;8.372;2024-03-02T13:14:16;23.90;90.00
20288;DHT22;10303;51.960;8.372;2024-03-02T13:16:42;23.80;90.00
20288;DHT22;10303;51.960;8.372;2024-03-02T13:19:09;23.70;90.00
20288;DHT22;10303;51.960;8.372;2024-03-02T13:21:36;23.60;89.90
20288;DHT22;10303;51.960;8.372;2024-03-02T13:24:02;23.60;89.80
20288;DHT22;10303;51.960;8.372;2024-03-02T13:26:29;23.50;89.90
20288;DHT22;10303;51.960;8.372;2024-03-02T13:28:55;23.40;88.80
20288;DHT22;10303;51.960;8.372;2024-03-02T13:31:21;23.20;86.80
20288;DHT22;10303;51.960;8.372;2024-03-02T13:33:46;22.90;86.40
20288;DHT22;10303;51.960;8.372;2024-03-02T13:36:12;22.90;87.90
20288;DHT22;10303;51.960;8.372;2024-03-02T13:38:38;22.70;89.10
20288;DHT22;10303;51.960;8.372;2024-03-02T13:41:05;22.60;88.90
20288;DHT22;10303;51.960;8.372;2024-03-02T13:43:31;22.50;89.30
20288;DHT22;10303;51.960;8.372;2024-03-02T13:45:58;22.40;89.70
20288;DHT22;10303;51.960;8.372;2024-03-02T13:48:24;22.30;90.00
20288;DHT22;10303;51.960;8.372;2024-03-02T13:50:53;22.10;89.10
20288;DHT22;10303;51.960;8.372;2024-03-02T13:53:20;22.10;89.50
20288;DHT22;10303;51.960;8.372;2024-03-02T13:55:46;22.00;90.30
20288;DHT22;10303;51.960;8.372;2024-03-02T13:58:12;21.90;90.30
20288;DHT22;10303;51.960;8.372;2024-03-02T14:00:38;21.80;89.10
20288;DHT22;10303;51.960;8.372;2024-03-02T14:03:06;21.70;90.20
20288;DHT22;10303;51.960;8.372;2024-03-02T14:05:32;21.50;89.30
20288;DHT22;10303;51.960;8.372;2024-03-02T14:07:58;21.40;90.20
20288;DHT22;10303;51.960;8.372;2024-03-02T14:10:26;21.30;90.30
20288;DHT22;10303;51.960;8.372;2024-03-02T14:12:53;21.10;90.30
20288;DHT22;10303;51.960;8.372;2024-03-02T14:15:21;21.10;90.60
20288;DHT22;10303;51.960;8.372;2024-03-02T14:17:47;21.00;90.90
20288;DHT22;10303;51.960;8.372;2024-03-02T14:20:14;20.90;91.00
20288;DHT22;10303;51.960;8.372;2024-03-02T14:22:40;20.90;91.10
20288;DHT22;10303;51.960;8.372;2024-03-02T14:25:06;20.80;91.20
20288;DHT22;10303;51.960;8.372;2024-03-02T14:27:33;20.70;91.20
20288;DHT22;10303;51.960;8.372;2024-03-02T14:29:59;20.70;91.10
20288;DHT22;10303;51.960;8.372;2024-03-02T14:32:25;20.60;91.20
20288;DHT22;10303;51.960;8.372;2024-03-02T14:34:50;20.50;90.90
20288;DHT22;10303;51.960;8.372;2024-03-02T14:37:16;20.40;91.00
20288;DHT22;10303;51.960;8.372;2024-03-02T14:39:42;20.30;91.00
20288;DHT22;10303;51.960;8.372;2024-03-02T14:42:08;20.10;91.40
20288;DHT22;10303;51.960;8.372;2024-03-02T14:44:34;20.00;91.60
20288;DHT22;10303;51.960;8.372;2024-03-02T14:47:02;20.00;91.90
20288;DHT22;10303;51.960;8.372;2024-03-02T14:49:30;19.80;91.80
20288;DHT22;10303;51.960;8.372;2024-03-02T14:51:56;19.80;91.70
20288;DHT22;10303;51.960;8.372;2024-03-02T14:54:22;19.70;91.80
20288;DHT22;10303;51.960;8.372;2024-03-02T14:56:49;19.70;92.00
20288;DHT22;10303;51.960;8.372;2024-03-02T14:59:14;19.60;92.10
20288;DHT22;10303;51.960;8.372;2024-03-02T15:01:40;19.60;92.20
20288;DHT22;10303;51.960;8.372;2024-03-02T15:04:06;19.50;92.40
20288;DHT22;10303;51.960;8.372;2024-03-02T15:06:33;19.40;92.50
20288;DHT22;10303;51.960;8.372;2024-03-02T15:08:58;19.40;92.70
20288;DHT22;10303;51.960;8.372;2024-03-02T15:11:26;19.40;92.70
20288;DHT22;10303;51.960;8.372;2024-03-02T15:13:53;19.30;92.90
20288;DHT22;10303;51.960;8.372;2024-03-02T15:16:19;19.30;93.00
20288;DHT22;10303;51.960;8.372;2024-03-02T15:18:45;19.30;93.10
20288;DHT22;10303;51.960;8.372;2024-03-02T15:21:11;19.40;93.10
20288;DHT22;10303;51.960;8.372;2024-03-02T15:23:37;19.30;93.00
20288;DHT22;10303;51.960;8.372;2024-03-02T15:26:03;19.30;93.00
20288;DHT22;10303;51.960;8.372;2024-03-02T15:28:30;19.20;92.60
20288;DHT22;10303;51.960;8.372;2024-03-02T15:30:55;19.20;92.70
20288;DHT22;10303;51.960;8.372;2024-03-02T15:33:21;19.10;92.60
20288;DHT22;10303;51.960;8.372;2024-03-02T15:35:51;19.00;92.70
20288;DHT22;10303;51.960;8.372;2024-03-02T15:38:17;19.00;92.70
20288;DHT22;10303;51.960;8.372;2024-03-02T15:40:43;19.00;93.00